NFTF/TBU METAR and TAF weather

Enter ICAO airport designator
Station Type Date Time Source
NFTF METAR 2019/04/20 18:00 UTC NOAA

NFTF 201800Z 11010KT 9999 FEW016 BKN280 23/21 Q1016


Station Type Date Time Source
NFTF Decoded METAR 2019/04/20 18:00 UTC NOAA

Fua'Amotu, Tonga (NFTF) 21-14S 175-09W 41M
Apr 20, 2019 - 02:00 PM EDT / 2019.04.20 1800 UTC
Wind: from the ESE (110 degrees) at 12 MPH (10 KT):0
Visibility: greater than 7 mile(s):0
Sky conditions: mostly cloudy
Temperature: 73 F (23 C)
Dew Point: 69 F (21 C)
Relative Humidity: 88%
Pressure (altimeter): 30.00 in. Hg (1016 hPa)
ob: NFTF 201800Z 11010KT 9999 FEW016 BKN280 23/21 Q1016
cycle: 18

Station Type Date Time Source
NFTF TAF 2019/04/20 18:06 UTC NOAA

TAF NFTF 201703Z 2018/2118 12010G25KT 9999 FEW010 SCT018

Example: see airport list